Time,TemperatureF,DewpointF,PressureIn,WindDirection,WindDirectionDegrees,WindSpeedMPH,WindSpeedGustMPH,Humidity,HourlyPrecipIn,Conditions,Clouds,dailyrainin,SoftwareType,DateUTC
2013-06-20 00:03:00,65.6,64.0,30.11,SW,229,0.0,0.0,93,0.00,,,0.00,weatherlink.com 1.10,2013-06-20 04:03:00,
2013-06-20 00:18:00,65.5,64.0,30.12,NNW,327,0.0,1.0,94,0.00,,,0.00,weatherlink.com 1.10,2013-06-20 04:18:00,
2013-06-20 00:33:00,65.2,64.0,30.12,NNW,327,1.0,1.0,95,0.00,,,0.00,weatherlink.com 1.10,2013-06-20 04:33:00,
2013-06-20 00:48:00,65.1,64.0,30.12,SSE,168,0.0,1.0,95,0.00,,,0.00,weatherlink.com 1.10,2013-06-20 04:48:00,
2013-06-20 01:03:00,65.5,64.0,30.12,NW,312,0.0,1.0,95,0.00,,,0.00,weatherlink.com 1.10,2013-06-20 05:03:00,
2013-06-20 01:18:00,65.6,64.0,30.13,SSE,162,0.0,1.0,95,0.00,,,0.00,weatherlink.com 1.10,2013-06-20 05:18:00,
2013-06-20 01:33:00,65.7,64.0,30.12,SSE,152,1.0,1.0,94,0.00,,,0.00,weatherlink.com 1.10,2013-06-20 05:33:00,
2013-06-20 01:48:00,65.8,64.0,30.13,SSE,150,0.0,1.0,93,0.00,,,0.00,weatherlink.com 1.10,2013-06-20 05:48:00,
2013-06-20 02:03:00,65.8,64.0,30.13,SE,129,0.0,0.0,94,0.00,,,0.00,weatherlink.com 1.10,2013-06-20 06:03:00,
2013-06-20 02:18:00,65.9,65.0,30.13,SE,128,0.0,1.0,95,0.00,,,0.00,weatherlink.com 1.10,2013-06-20 06:18:00,
2013-06-20 02:33:00,65.7,64.0,30.12,East,84,1.0,1.0,95,0.00,,,0.00,weatherlink.com 1.10,2013-06-20 06:33:00,
2013-06-20 02:48:00,65.1,64.0,30.13,East,85,0.0,1.0,95,0.00,,,0.00,weatherlink.com 1.10,2013-06-20 06:48:00,
2013-06-20 03:03:00,64.6,64.0,30.13,SW,233,0.0,1.0,96,0.00,,,0.00,weatherlink.com 1.10,2013-06-20 07:03:00,
2013-06-20 03:18:00,64.4,63.0,30.13,NNW,333,0.0,1.0,96,0.00,,,0.00,weatherlink.com 1.10,2013-06-20 07:18:00,
2013-06-20 03:33:00,64.1,63.0,30.13,WNW,290,0.0,0.0,96,0.00,,,0.00,weatherlink.com 1.10,2013-06-20 07:33:00,
2013-06-20 03:48:00,64.0,63.0,30.13,SW,214,0.0,1.0,96,0.00,,,0.00,weatherlink.com 1.10,2013-06-20 07:48:00,
2013-06-20 04:03:00,63.8,63.0,30.13,SE,142,0.0,1.0,97,0.00,,,0.00,weatherlink.com 1.10,2013-06-20 08:03:00,
2013-06-20 04:19:00,63.9,63.0,30.14,SW,226,0.0,1.0,97,0.00,,,0.00,weatherlink.com 1.10,2013-06-20 08:19:00,
2013-06-20 04:49:00,64.2,63.0,30.14,East,92,0.0,1.0,97,0.00,,,0.00,weatherlink.com 1.10,2013-06-20 08:49:00,
2013-06-20 05:04:00,64.1,63.0,30.15,WNW,285,0.0,1.0,97,0.00,,,0.00,weatherlink.com 1.10,2013-06-20 09:04:00,
2013-06-20 05:19:00,64.2,63.0,30.15,West,274,0.0,0.0,96,0.00,,,0.00,weatherlink.com 1.10,2013-06-20 09:19:00,
2013-06-20 05:34:00,64.2,63.0,30.15,SSE,150,1.0,1.0,96,0.00,,,0.00,weatherlink.com 1.10,2013-06-20 09:34:00,
2013-06-20 05:49:00,64.1,63.0,30.15,SE,141,0.0,1.0,97,0.00,,,0.00,weatherlink.com 1.10,2013-06-20 09:49:00,
2013-06-20 06:04:00,63.9,63.0,30.15,SE,131,0.0,0.0,97,0.00,,,0.00,weatherlink.com 1.10,2013-06-20 10:04:00,
2013-06-20 06:19:00,64.0,63.0,30.16,SE,131,0.0,0.0,97,0.00,,,0.00,weatherlink.com 1.10,2013-06-20 10:19:00,
2013-06-20 06:34:00,64.3,64.0,30.16,ENE,63,0.0,1.0,97,0.00,,,0.00,weatherlink.com 1.10,2013-06-20 10:34:00,
2013-06-20 06:49:00,64.6,64.0,30.16,WNW,287,1.0,1.0,97,0.00,,,0.00,weatherlink.com 1.10,2013-06-20 10:49:00,
2013-06-20 07:04:00,64.8,64.0,30.17,WNW,286,0.0,0.0,96,0.00,,,0.00,weatherlink.com 1.10,2013-06-20 11:04:00,
2013-06-20 07:19:00,65.8,65.0,30.17,NE,37,1.0,1.0,96,0.00,,,0.00,weatherlink.com 1.10,2013-06-20 11:19:00,
2013-06-20 07:34:00,66.0,65.0,30.18,NE,40,0.0,1.0,95,0.00,,,0.00,weatherlink.com 1.10,2013-06-20 11:34:00,
2013-06-20 07:49:00,66.6,65.0,30.18,SSE,162,4.0,4.0,94,0.00,,,0.00,weatherlink.com 1.10,2013-06-20 11:49:00,
2013-06-20 08:04:00,67.1,65.0,30.19,SE,131,3.0,7.0,94,0.00,,,0.00,weatherlink.com 1.10,2013-06-20 12:04:00,
2013-06-20 08:19:00,68.0,65.0,30.19,SSE,150,5.0,8.0,91,0.00,,,0.00,weatherlink.com 1.10,2013-06-20 12:19:00,
2013-06-20 08:34:00,68.4,65.0,30.19,SW,214,3.0,7.0,90,0.00,,,0.00,weatherlink.com 1.10,2013-06-20 12:34:00,
2013-06-20 08:49:00,69.2,66.0,30.20,SSW,198,1.0,6.0,89,0.00,,,0.00,weatherlink.com 1.10,2013-06-20 12:49:00,
2013-06-20 09:04:00,69.2,65.0,30.19,SE,142,6.0,9.0,87,0.00,,,0.00,weatherlink.com 1.10,2013-06-20 13:04:00,
2013-06-20 09:19:00,70.5,66.0,30.20,SE,143,5.0,11.0,85,0.00,,,0.00,weatherlink.com 1.10,2013-06-20 13:19:00,
2013-06-20 09:34:00,70.9,66.0,30.20,SSE,150,9.0,11.0,83,0.00,,,0.00,weatherlink.com 1.10,2013-06-20 13:34:00,
2013-06-20 09:49:00,70.8,66.0,30.20,ESE,106,7.0,14.0,85,0.00,,,0.00,weatherlink.com 1.10,2013-06-20 13:49:00,
2013-06-20 10:04:00,71.3,66.0,30.20,SE,146,11.0,16.0,82,0.00,,,0.00,weatherlink.com 1.10,2013-06-20 14:04:00,
2013-06-20 10:19:00,72.1,66.0,30.19,SSE,158,8.0,16.0,81,0.00,,,0.00,weatherlink.com 1.10,2013-06-20 14:19:00,
2013-06-20 10:35:00,72.8,65.0,30.19,SSE,150,10.0,16.0,77,0.00,,,0.00,weatherlink.com 1.10,2013-06-20 14:35:00,
2013-06-20 10:49:00,73.1,66.0,30.19,SE,143,16.0,16.0,79,0.00,,,0.00,weatherlink.com 1.10,2013-06-20 14:49:00,
2013-06-20 11:04:00,74.3,66.0,30.20,SSE,163,9.0,16.0,76,0.00,,,0.00,weatherlink.com 1.10,2013-06-20 15:04:00,
2013-06-20 11:20:00,74.8,66.0,30.20,SSE,163,13.0,17.0,74,0.00,,,0.00,weatherlink.com 1.10,2013-06-20 15:20:00,
2013-06-20 11:35:00,74.5,65.0,30.20,SE,141,10.0,17.0,72,0.00,,,0.00,weatherlink.com 1.10,2013-06-20 15:35:00,
2013-06-20 11:50:00,74.9,65.0,30.20,SSE,150,14.0,17.0,72,0.00,,,0.00,weatherlink.com 1.10,2013-06-20 15:50:00,
2013-06-20 12:05:00,74.8,65.0,30.20,SSE,148,13.0,18.0,72,0.00,,,0.00,weatherlink.com 1.10,2013-06-20 16:05:00,
2013-06-20 12:20:00,74.8,65.0,30.19,SE,139,9.0,18.0,71,0.00,,,0.00,weatherlink.com 1.10,2013-06-20 16:20:00,
2013-06-20 12:35:00,75.2,65.0,30.19,SSE,158,12.0,18.0,70,0.00,,,0.00,weatherlink.com 1.10,2013-06-20 16:35:00,
2013-06-20 12:50:00,76.1,64.0,30.19,SSE,153,11.0,20.0,67,0.00,,,0.00,weatherlink.com 1.10,2013-06-20 16:50:00,
2013-06-20 13:05:00,76.1,65.0,30.19,SE,135,9.0,19.0,68,0.00,,,0.00,weatherlink.com 1.10,2013-06-20 17:05:00,
2013-06-20 13:20:00,76.8,64.0,30.18,SE,141,11.0,18.0,65,0.00,,,0.00,weatherlink.com 1.10,2013-06-20 17:20:00,
2013-06-20 13:35:00,77.8,65.0,30.18,SE,137,13.0,19.0,64,0.00,,,0.00,weatherlink.com 1.10,2013-06-20 17:35:00,
2013-06-20 13:50:00,76.7,65.0,30.18,SE,146,16.0,19.0,67,0.00,,,0.00,weatherlink.com 1.10,2013-06-20 17:50:00,
2013-06-20 14:05:00,77.2,65.0,30.18,SSE,147,11.0,21.0,66,0.00,,,0.00,weatherlink.com 1.10,2013-06-20 18:05:00,
2013-06-20 14:20:00,77.4,65.0,30.18,SSW,203,6.0,18.0,65,0.00,,,0.00,weatherlink.com 1.10,2013-06-20 18:20:00,
2013-06-20 14:36:00,77.4,65.0,30.17,SSE,158,11.0,22.0,65,0.00,,,0.00,weatherlink.com 1.10,2013-06-20 18:36:00,
2013-06-20 14:50:00,77.5,65.0,30.17,SE,141,16.0,20.0,65,0.00,,,0.00,weatherlink.com 1.10,2013-06-20 18:50:00,
2013-06-20 15:05:00,76.6,64.0,30.17,SE,136,9.0,21.0,65,0.00,,,0.00,weatherlink.com 1.10,2013-06-20 19:05:00,
2013-06-20 15:20:00,76.8,64.0,30.17,SSE,153,13.0,20.0,64,0.00,,,0.00,weatherlink.com 1.10,2013-06-20 19:20:00,
2013-06-20 15:35:00,77.5,64.0,30.16,SE,141,16.0,19.0,63,0.00,,,0.00,weatherlink.com 1.10,2013-06-20 19:35:00,
2013-06-20 15:50:00,77.3,64.0,30.16,SE,145,14.0,20.0,64,0.00,,,0.00,weatherlink.com 1.10,2013-06-20 19:50:00,
2013-06-20 16:05:00,76.8,64.0,30.16,SE,134,15.0,19.0,64,0.00,,,0.00,weatherlink.com 1.10,2013-06-20 20:05:00,
2013-06-20 16:20:00,76.5,64.0,30.16,SE,125,12.0,18.0,65,0.00,,,0.00,weatherlink.com 1.10,2013-06-20 20:20:00,
2013-06-20 16:35:00,76.1,63.0,30.16,SE,127,11.0,18.0,65,0.00,,,0.00,weatherlink.com 1.10,2013-06-20 20:35:00,
2013-06-20 16:50:00,75.8,64.0,30.16,SSE,149,9.0,18.0,66,0.00,,,0.00,weatherlink.com 1.10,2013-06-20 20:50:00,
2013-06-20 17:05:00,76.5,64.0,30.16,SSE,151,10.0,18.0,66,0.00,,,0.00,weatherlink.com 1.10,2013-06-20 21:05:00,
2013-06-20 17:20:00,76.8,64.0,30.16,SSE,155,14.0,17.0,65,0.00,,,0.00,weatherlink.com 1.10,2013-06-20 21:20:00,
2013-06-20 17:35:00,76.3,63.0,30.16,SE,125,15.0,15.0,64,0.00,,,0.00,weatherlink.com 1.10,2013-06-20 21:35:00,
2013-06-20 17:50:00,76.2,64.0,30.16,SE,143,11.0,15.0,67,0.00,,,0.00,weatherlink.com 1.10,2013-06-20 21:50:00,
2013-06-20 18:05:00,76.9,64.0,30.15,South,179,5.0,15.0,65,0.00,,,0.00,weatherlink.com 1.10,2013-06-20 22:05:00,
2013-06-20 18:20:00,76.6,64.0,30.16,SSE,149,8.0,14.0,65,0.00,,,0.00,weatherlink.com 1.10,2013-06-20 22:20:00,
2013-06-20 18:35:00,76.0,64.0,30.16,SE,138,7.0,12.0,67,0.00,,,0.00,weatherlink.com 1.10,2013-06-20 22:35:00,
2013-06-20 18:50:00,76.0,64.0,30.16,SE,144,8.0,14.0,67,0.00,,,0.00,weatherlink.com 1.10,2013-06-20 22:50:00,
2013-06-20 19:05:00,75.3,64.0,30.17,SSE,167,7.0,16.0,68,0.00,,,0.00,weatherlink.com 1.10,2013-06-20 23:05:00,
2013-06-20 19:20:00,74.6,64.0,30.17,SE,131,8.0,13.0,70,0.00,,,0.00,weatherlink.com 1.10,2013-06-20 23:20:00,
2013-06-20 19:35:00,74.0,65.0,30.17,SSE,148,5.0,9.0,73,0.00,,,0.00,weatherlink.com 1.10,2013-06-20 23:35:00,
2013-06-20 19:50:00,73.5,64.0,30.17,SE,131,6.0,9.0,73,0.00,,,0.00,weatherlink.com 1.10,2013-06-20 23:50:00,
2013-06-20 20:05:00,72.9,64.0,30.18,SSE,149,5.0,7.0,74,0.00,,,0.00,weatherlink.com 1.10,2013-06-21 00:05:00,
2013-06-20 20:20:00,72.6,64.0,30.18,SSE,149,6.0,7.0,75,0.00,,,0.00,weatherlink.com 1.10,2013-06-21 00:20:00,
2013-06-20 20:35:00,72.2,64.0,30.18,SE,142,5.0,8.0,75,0.00,,,0.00,weatherlink.com 1.10,2013-06-21 00:35:00,
2013-06-20 20:50:00,72.1,64.0,30.18,SSE,155,5.0,7.0,76,0.00,,,0.00,weatherlink.com 1.10,2013-06-21 00:50:00,
2013-06-20 21:05:00,71.9,64.0,30.18,SSE,167,5.0,7.0,76,0.00,,,0.00,weatherlink.com 1.10,2013-06-21 01:05:00,
2013-06-20 21:20:00,71.8,64.0,30.19,SSE,161,6.0,9.0,76,0.00,,,0.00,weatherlink.com 1.10,2013-06-21 01:20:00,
2013-06-20 21:35:00,71.5,64.0,30.19,SSE,160,3.0,8.0,76,0.00,,,0.00,weatherlink.com 1.10,2013-06-21 01:35:00,
2013-06-20 21:50:00,71.2,64.0,30.19,SSW,210,7.0,7.0,77,0.00,,,0.00,weatherlink.com 1.10,2013-06-21 01:50:00,
2013-06-20 22:05:00,71.1,64.0,30.19,SSE,155,5.0,7.0,77,0.00,,,0.00,weatherlink.com 1.10,2013-06-21 02:05:00,
2013-06-20 22:20:00,71.0,64.0,30.20,SSW,207,3.0,4.0,78,0.00,,,0.00,weatherlink.com 1.10,2013-06-21 02:20:00,
2013-06-20 22:35:00,71.1,64.0,30.20,SSE,167,3.0,4.0,77,0.00,,,0.00,weatherlink.com 1.10,2013-06-21 02:35:00,
2013-06-20 22:50:00,71.1,64.0,30.20,SSE,149,0.0,2.0,77,0.00,,,0.00,weatherlink.com 1.10,2013-06-21 02:50:00,
2013-06-20 23:05:00,71.0,63.0,30.20,South,173,0.0,1.0,77,0.00,,,0.00,weatherlink.com 1.10,2013-06-21 03:05:00,
2013-06-20 23:20:00,71.0,63.0,30.20,SSW,210,0.0,1.0,77,0.00,,,0.00,weatherlink.com 1.10,2013-06-21 03:20:00,
2013-06-20 23:35:00,70.9,63.0,30.20,South,176,3.0,4.0,77,0.00,,,0.00,weatherlink.com 1.10,2013-06-21 03:35:00,
2013-06-20 23:50:00,71.0,63.0,30.20,South,183,2.0,7.0,76,0.00,,,0.00,weatherlink.com 1.10,2013-06-21 03:50:00,